Terminal Aerodrome Forecast
Issued by NWS

Home | Current Version | Previous Version | Text Only | Print | Product List | Glossary On
Versions: 1 2 3 4 5 6 7 8 9 10 11 12 13
000
FTUS45 KRIW 201700
TAFWRL
TAF
KWRL 201721Z 2018/2118 VRB04KT P6SM SCT090 BKN250
     FM202100 34010KT P6SM FEW100 SCT250
     FM210100 VRB05KT P6SM FEW250
     FM211500 17006KT P6SM SCT090 BKN200=

USA.gov is the U.S. government's official web portal to all federal, state and local government web resources and services.